Date,TemperatureHighF,TemperatureAvgF,TemperatureLowF,DewpointHighF,DewpointAvgF,DewpointLowF,HumidityHigh,HumidityAvg,HumidityLow,PressureMaxIn,PressureMinIn,WindSpeedMaxMPH,WindSpeedAvgMPH,GustSpeedMaxMPH,PrecipitationSumIn
2013-1-1,38.6,34.3,26.2,32.0,25.8,15.6,81,71,60,30.05,29.87,3,1,5,0.00
2013-1-2,32.9,26.4,18.6,20.8,16.6,13.6,85,67,51,30.21,30.03,3,1,7,0.00
2013-1-3,32.0,26.9,18.5,22.4,18.4,14.8,92,71,55,30.23,30.09,4,1,6,0.00
2013-1-4,37.4,32.6,27.2,25.8,23.5,20.9,82,69,58,30.11,29.98,4,1,8,0.00
2013-1-5,42.5,33.8,27.6,26.6,23.5,20.2,89,66,48,30.33,30.06,4,1,6,0.00
2013-1-6,44.2,36.9,30.1,31.5,29.6,25.6,90,75,58,30.23,29.99,3,1,5,0.00
2013-1-7,43.4,34.7,24.5,31.6,27.7,22.2,92,77,50,30.41,30.09,3,0,5,0.00
2013-1-8,45.2,31.1,21.0,32.7,26.0,19.3,95,83,60,30.44,30.36,3,0,6,0.00
2013-1-9,40.3,29.3,22.2,37.7,27.2,20.7,95,92,84,30.42,30.16,2,0,3,0.01
2013-1-10,47.9,38.2,30.5,33.0,28.6,27.0,93,70,46,30.56,30.28,4,1,7,0.00
2013-1-11,43.7,36.2,29.4,39.8,33.5,26.8,97,90,76,30.55,30.11,2,0,3,0.29
2013-1-12,44.5,41.3,38.1,43.2,40.5,37.6,98,97,94,30.19,30.11,2,0,4,0.00
2013-1-13,47.7,44.6,41.6,47.4,44.2,41.1,99,99,98,30.16,30.00,2,0,3,0.00
2013-1-14,55.2,47.7,37.6,52.0,42.5,30.9,99,84,51,30.32,29.89,4,1,8,0.01
2013-1-15,37.6,35.8,32.5,33.8,29.7,26.3,95,79,65,30.38,30.22,3,1,4,0.00
2013-1-16,34.3,32.2,30.8,33.5,31.1,29.3,97,95,92,30.23,29.85,3,1,4,0.00
2013-1-17,41.5,36.6,33.8,33.6,31.0,26.7,97,80,62,30.11,29.95,3,0,4,0.00
2013-1-18,33.7,28.3,24.6,26.7,15.4,7.6,79,59,40,30.47,30.02,4,1,7,0.00
2013-1-19,47.2,37.1,26.4,32.5,25.1,14.3,77,62,49,30.39,29.90,6,2,9,0.02
2013-1-20,51.7,37.7,28.2,33.9,23.7,12.6,88,60,28,30.07,29.72,5,2,8,0.00
2013-1-21,29.4,26.4,23.1,22.4,15.2,11.1,90,63,49,30.11,29.88,3,1,5,0.00
2013-1-22,23.9,17.5,11.8,13.1,2.0,-4.3,63,51,38,30.27,29.88,5,2,11,0.00
2013-1-23,20.0,13.1,8.2,5.9,1.0,-3.8,85,59,40,30.30,30.21,4,1,7,0.00
2013-1-24,22.9,14.7,6.9,8.6,4.1,-0.9,90,65,36,30.49,30.17,6,1,11,0.00
2013-1-25,22.7,16.2,11.0,17.5,7.9,-0.3,95,71,51,30.48,30.09,2,0,5,0.00
2013-1-26,26.9,17.4,6.9,14.9,9.4,4.1,93,72,47,30.42,30.09,5,1,8,0.00
2013-1-27,33.9,21.1,8.9,18.8,12.7,6.1,92,72,41,30.57,30.42,3,0,6,0.00
2013-1-28,34.2,28.7,18.7,33.4,26.2,14.7,97,90,78,30.52,30.02,2,0,4,0.00
2013-1-29,50.1,41.4,34.3,44.4,39.1,33.2,97,92,80,30.15,30.02,3,0,4,0.00
2013-1-30,64.5,49.8,39.7,60.1,48.6,38.9,99,96,85,30.05,29.30,5,1,7,0.00
2013-1-31,56.0,40.6,27.4,55.5,29.7,12.8,99,67,42,29.81,29.05,6,3,9,0.00
2013-2-1,29.6,25.8,20.9,21.1,15.1,5.7,88,65,36,30.26,29.80,5,2,7,0.00
2013-2-2,24.4,20.7,15.9,21.2,13.0,7.7,93,73,55,30.33,30.06,4,1,7,0.00
2013-2-3,27.7,22.1,14.6,22.7,18.8,12.5,94,87,73,30.06,29.81,2,0,5,0.00
2013-2-4,28.8,24.7,20.1,20.8,14.7,11.3,82,66,49,30.03,29.87,4,1,5,0.00
2013-2-5,31.7,27.9,25.1,28.3,24.1,19.3,95,86,77,29.99,29.90,3,0,3,0.00
2013-2-6,38.0,31.4,25.9,29.3,23.1,13.0,96,73,47,30.37,29.94,3,1,5,0.00
2013-2-7,33.4,26.6,17.7,20.6,16.0,13.1,89,65,49,30.53,30.32,3,1,6,0.00
2013-2-8,34.7,32.1,29.2,31.9,28.6,18.6,96,87,64,30.33,29.72,6,3,9,0.00
2013-2-9,32.4,26.7,20.0,30.2,18.1,10.1,97,71,48,30.40,29.79,7,2,15,0.00
2013-2-10,36.0,23.5,8.3,24.8,14.8,5.0,92,71,44,30.52,30.31,3,0,4,0.00
2013-2-11,40.2,35.0,29.4,39.5,33.0,22.3,98,92,70,30.32,29.68,2,0,2,0.00
2013-2-12,42.8,38.1,31.3,35.2,28.1,25.0,98,68,56,29.99,29.76,4,1,6,0.00
2013-2-13,43.3,33.7,22.5,34.1,27.3,20.7,96,79,55,29.98,29.69,2,0,4,0.00
2013-2-14,44.2,35.1,27.7,34.0,29.7,25.4,98,82,56,30.01,29.73,3,0,5,0.00
2013-2-15,53.2,39.0,26.5,36.1,30.3,24.8,95,74,44,30.03,29.93,5,1,7,0.00
2013-2-16,35.6,32.3,28.1,32.3,25.2,12.6,97,76,51,30.00,29.81,5,1,9,0.00
2013-2-17,30.7,25.2,18.2,12.6,6.8,0.7,56,45,35,30.09,29.77,6,3,10,0.00
2013-2-18,35.0,24.9,15.6,20.4,9.2,1.8,73,52,37,30.32,30.09,4,1,9,0.00
2013-2-19,41.8,31.8,21.3,35.9,27.5,16.8,97,85,58,30.19,29.72,4,0,6,0.00
2013-2-20,34.9,28.7,24.4,26.6,16.0,11.3,73,59,47,30.05,29.78,5,3,10,0.00
2013-2-21,33.8,27.0,22.0,17.3,14.9,11.8,73,60,49,30.34,30.03,6,2,14,0.00
2013-2-22,38.0,29.0,18.7,29.8,21.4,14.4,87,74,57,30.44,30.25,3,1,5,0.00
2013-2-23,41.0,37.4,33.5,40.2,36.2,30.1,97,95,85,30.27,29.83,3,1,4,0.00
2013-2-24,44.6,36.7,32.4,40.0,30.6,22.9,98,80,61,30.02,29.80,3,1,7,0.00
2013-2-25,43.5,34.8,26.7,30.4,27.3,23.2,92,75,56,30.26,30.03,4,1,9,0.00
2013-2-26,44.5,34.3,24.4,33.8,29.1,22.7,95,82,60,30.29,29.86,7,2,12,0.00
2013-2-27,47.4,42.0,35.5,44.7,39.0,33.7,96,89,75,29.88,29.53,7,3,11,0.00
2013-2-28,47.7,39.5,32.9,37.4,33.4,29.4,97,80,56,29.67,29.58,3,0,5,0.00
2013-3-1,42.6,36.7,29.6,31.9,29.0,24.8,96,75,58,29.85,29.65,4,1,7,0.00
2013-3-2,37.7,33.3,29.7,25.6,23.5,20.5,76,67,58,29.84,29.75,4,1,7,0.00
2013-3-3,37.0,31.0,27.8,21.1,19.7,17.8,73,63,51,29.84,29.74,5,2,8,0.00
2013-3-4,41.3,33.5,28.2,23.1,20.4,17.7,70,59,44,29.98,29.83,5,2,11,0.00
2013-3-5,47.0,37.2,31.2,29.4,25.1,22.1,79,62,46,30.05,29.96,5,2,10,0.00
2013-3-6,40.2,38.2,34.2,37.1,31.1,26.9,93,76,65,30.00,29.86,10,5,22,0.00
2013-3-7,45.7,38.5,32.4,32.7,28.6,26.0,91,68,48,30.14,29.99,7,4,13,0.00
2013-3-8,44.8,35.5,29.8,33.2,29.0,24.9,93,78,60,30.27,30.07,5,2,13,0.00
2013-3-9,59.6,41.8,26.0,28.3,24.3,17.7,85,55,20,30.33,30.23,4,1,9,0.00
2013-3-10,58.3,41.7,26.5,36.5,29.4,24.1,92,66,30,30.38,30.26,4,1,5,0.00
2013-3-11,56.8,46.2,36.2,48.4,40.1,32.7,96,81,53,30.31,30.04,3,1,7,0.00
2013-3-12,56.8,52.2,43.4,56.1,48.7,36.7,98,88,77,30.03,29.68,5,2,8,0.97
2013-3-13,50.6,41.6,33.4,37.4,30.0,21.8,90,65,38,29.93,29.83,4,1,10,0.00
2013-3-14,42.1,34.3,29.2,21.3,14.5,8.2,64,45,27,30.01,29.89,5,2,9,0.00
2013-3-15,46.0,37.0,27.1,32.4,22.5,12.8,65,56,45,30.03,29.73,5,2,10,0.00
2013-3-16,42.5,33.6,29.0,31.6,28.0,22.1,94,81,60,29.94,29.78,3,0,4,0.05
2013-3-17,37.6,32.3,27.4,31.5,22.7,18.0,95,69,46,30.32,29.93,4,1,6,0.02
2013-3-18,35.7,29.0,21.6,30.5,21.5,13.6,96,75,50,30.42,29.98,6,2,10,0.00
2013-3-19,47.2,37.1,31.8,39.0,31.8,19.1,97,83,46,29.98,29.70,5,1,7,0.48
2013-3-20,45.1,36.5,30.0,26.8,21.7,17.9,74,56,34,29.92,29.79,5,2,8,0.00
2013-3-21,39.5,32.9,28.5,26.5,17.7,12.2,74,55,34,29.85,29.67,4,2,7,0.00
2013-3-22,41.6,33.5,25.5,24.0,20.2,13.5,76,59,41,29.92,29.77,3,1,7,0.00
2013-3-23,45.3,37.7,30.8,23.7,21.7,18.9,68,53,37,29.97,29.87,5,2,10,0.00
2013-3-24,46.6,38.5,25.9,28.3,22.7,19.9,81,54,36,29.99,29.70,5,1,7,0.00
2013-3-25,39.7,36.8,33.3,35.6,30.8,25.1,95,80,56,29.70,29.50,5,2,7,0.09
2013-3-26,52.7,41.3,32.7,35.4,31.3,25.1,96,72,35,29.91,29.63,5,1,7,0.00
2013-3-27,52.3,39.7,27.4,34.7,28.7,23.0,91,68,33,30.03,29.90,6,1,12,0.00
2013-3-28,48.8,40.7,29.2,33.3,29.8,26.6,93,67,47,30.16,30.00,5,1,9,0.00
2013-3-29,52.9,44.3,28.8,33.1,29.9,25.6,90,59,38,30.19,30.10,5,1,8,0.00
2013-3-30,60.0,43.0,27.2,34.8,26.3,19.1,94,59,21,30.21,30.08,2,0,4,0.00
2013-3-31,58.5,42.2,27.8,44.0,34.1,24.6,96,76,40,30.14,29.71,4,1,8,0.11
2013-4-1,58.6,46.6,35.2,47.5,34.7,13.4,97,68,31,29.95,29.65,5,2,13,0.00
2013-4-2,43.4,35.3,25.8,22.0,16.0,10.8,78,47,27,30.12,29.95,4,1,8,0.00
2013-4-3,46.3,36.5,27.8,19.3,14.3,10.1,68,42,25,30.35,30.12,4,2,7,0.00
2013-4-4,53.6,40.9,24.9,25.2,20.7,14.1,77,46,30,30.41,30.07,4,1,7,0.00
2013-4-5,63.0,48.2,35.2,30.6,25.0,17.4,76,44,17,30.07,29.76,6,2,10,0.00
2013-4-6,54.6,42.9,32.9,25.0,16.8,11.3,58,37,18,30.32,30.04,5,2,9,0.00
2013-4-7,62.9,56.5,39.6,41.6,36.5,28.0,66,47,35,30.27,29.98,14,3,14,0.00
2013-4-8,77.3,69.2,52.2,51.4,45.7,39.2,74,45,26,30.09,29.94,3,1,7,0.00
2013-4-9,83.9,69.1,53.6,54.3,46.8,35.8,85,51,19,29.98,29.87,4,1,6,0.00
2013-4-10,86.3,66.9,56.2,60.4,54.4,48.1,97,67,39,29.94,29.76,9,1,15,0.39
2013-4-11,60.6,55.7,46.0,59.9,51.1,41.2,98,85,62,30.01,29.76,5,2,9,0.00
2013-4-12,47.2,43.7,41.4,43.3,41.0,39.5,95,90,76,29.98,29.72,6,3,9,0.04
2013-4-13,58.1,48.4,38.0,43.5,37.8,34.0,98,70,44,29.98,29.77,4,0,6,0.00
2013-4-14,60.1,50.8,40.5,41.6,34.1,27.4,92,57,31,30.21,29.96,3,1,7,0.00
2013-4-15,63.4,52.0,41.9,40.8,35.9,29.6,78,55,39,30.36,30.21,4,1,7,0.00
2013-4-16,69.0,58.8,48.1,57.3,49.8,38.4,83,72,64,30.35,30.09,5,2,8,0.00
2013-4-17,71.4,60.9,49.5,57.7,42.3,32.4,94,56,24,30.28,30.12,5,1,8,0.00
2013-4-18,57.8,51.9,43.9,54.4,46.2,40.1,94,81,61,30.32,30.06,4,1,9,0.00
2013-4-19,77.1,65.9,51.2,65.3,60.4,46.8,96,83,66,30.06,29.56,6,2,12,0.02
2013-4-20,58.2,50.6,42.5,49.0,34.9,22.6,95,58,34,30.34,29.71,5,2,8,0.00
2013-4-21,54.6,44.4,34.5,34.2,24.9,20.3,75,48,29,30.62,30.35,6,1,8,0.00
2013-4-22,56.1,44.8,32.2,36.8,32.8,29.2,91,65,44,30.65,30.48,6,2,9,0.00
2013-4-23,50.5,44.8,39.5,41.7,37.1,32.6,93,75,65,30.48,30.15,5,2,8,0.00
2013-4-24,73.0,55.9,36.1,57.1,47.0,34.8,96,75,50,30.14,29.78,4,1,7,0.01
2013-4-25,64.7,54.0,43.4,55.6,32.6,24.6,82,47,23,30.27,29.89,4,1,9,0.00
2013-4-26,66.1,51.2,35.2,39.0,31.9,23.2,94,54,21,30.43,30.27,3,1,7,0.00
2013-4-27,70.4,53.7,34.5,42.0,35.7,32.1,93,56,26,30.45,30.26,2,0,3,0.00
2013-4-28,72.9,57.5,38.4,44.7,39.5,32.7,94,56,31,30.31,30.16,4,1,5,0.00
2013-4-29,55.5,53.4,52.5,52.5,49.2,42.2,94,86,62,30.23,30.15,4,1,8,0.00
2013-4-30,68.7,57.3,45.0,52.0,43.2,23.5,95,64,23,30.34,30.19,4,1,9,0.00
2013-5-1,73.5,54.3,35.9,44.0,36.2,26.2,89,57,19,30.48,30.34,4,1,8,0.00
2013-5-2,75.8,55.7,37.4,47.7,42.2,36.0,97,67,32,30.48,30.34,2,0,4,0.00
2013-5-7,77.1,70.2,62.6,58.8,56.2,51.0,87,62,47,30.14,30.06,4,1,7,0.00
2013-5-8,68.9,61.8,57.6,63.1,59.0,56.2,98,91,70,30.08,29.92,2,0,7,0.02
2013-5-9,68.8,60.2,54.8,60.3,56.6,54.1,98,89,66,29.99,29.89,1,0,3,0.03
2013-5-10,80.5,65.5,51.4,64.0,57.5,50.9,99,79,44,30.02,29.87,2,0,3,0.16
2013-5-11,70.4,64.0,58.7,65.5,62.0,57.9,98,93,80,29.91,29.69,1,0,4,0.40
2013-5-12,65.5,57.7,47.3,57.8,41.8,27.4,97,60,29,29.96,29.69,5,2,11,0.00
2013-5-13,54.0,46.8,37.5,35.9,32.0,27.1,89,59,37,30.14,29.96,3,1,7,0.00
2013-5-14,61.3,47.0,31.8,38.6,30.7,20.5,97,61,24,30.18,30.02,2,0,5,0.00
2013-5-15,73.9,57.9,41.0,59.6,48.5,36.1,86,72,54,30.07,29.67,3,0,6,0.00
2013-5-16,82.1,66.9,51.4,60.9,53.9,44.8,98,68,30,29.86,29.71,2,0,6,0.00
2013-5-17,72.7,61.8,50.4,47.7,43.8,40.3,84,54,33,30.21,29.86,3,0,11,0.00
2013-5-18,65.9,56.4,48.1,57.3,51.5,45.2,94,84,54,30.30,30.21,1,0,2,0.04
2013-5-19,61.7,58.2,55.9,58.6,56.2,54.2,97,93,86,30.29,30.16,2,0,4,0.05
2013-5-20,79.9,67.1,57.6,67.9,62.0,56.3,98,85,64,30.18,29.95,1,0,4,0.00
2013-5-21,88.7,73.1,59.1,72.9,66.6,58.2,99,82,56,29.97,29.81,2,0,4,0.00
2013-5-22,86.2,75.4,63.9,73.6,68.7,62.8,98,81,59,29.89,29.77,2,0,4,0.00
2013-5-23,77.6,68.4,63.1,71.5,66.2,61.7,99,93,75,29.87,29.73,2,0,7,0.93
2013-5-24,63.3,56.2,44.1,62.0,54.8,40.8,99,95,84,30.01,29.69,2,0,7,0.26
2013-5-25,58.7,51.1,43.8,43.2,39.9,34.6,94,68,43,30.06,29.96,5,2,10,0.06
2013-5-26,68.0,60.7,46.1,41.3,37.0,32.7,82,43,30,30.23,30.06,4,2,6,0.00
2013-5-27,76.1,57.7,36.8,48.3,41.3,35.5,97,62,26,30.27,30.13,2,0,3,0.00
2013-5-28,57.6,53.8,46.9,57.0,52.3,45.5,98,95,85,30.22,30.12,1,0,1,0.32
2013-5-29,84.5,68.5,57.3,71.4,63.4,56.8,99,86,58,30.13,29.99,1,0,4,0.00
2013-5-30,93.3,77.2,61.9,70.2,65.4,61.0,99,71,39,30.14,30.04,1,0,3,0.00
2013-5-31,93.0,77.7,63.0,73.2,64.9,56.4,98,69,35,30.12,29.96,1,0,2,0.00
2013-6-1,92.4,77.7,60.7,72.0,66.8,59.6,98,72,49,30.02,29.85,2,0,4,0.00
2013-6-2,87.8,77.2,71.0,73.6,69.6,67.1,97,79,53,29.87,29.74,2,0,4,0.22
2013-6-3,82.0,71.6,63.7,70.0,64.7,52.5,98,80,56,29.91,29.78,1,0,3,0.00
2013-6-4,76.0,64.6,52.4,52.0,46.6,40.9,84,55,31,30.14,29.91,3,1,5,0.07
2013-6-5,77.9,63.0,45.4,52.4,48.8,43.8,94,64,37,30.23,30.08,3,1,5,0.00
2013-6-6,70.0,61.3,52.1,61.0,55.4,49.8,96,82,56,30.14,29.97,3,1,5,0.35
2013-6-7,63.2,60.9,59.3,62.6,60.2,58.2,98,97,95,29.98,29.66,3,1,8,2.25
2013-6-8,76.1,66.3,58.0,65.6,61.8,57.2,99,86,66,30.07,29.65,2,0,4,0.18
2013-6-9,82.3,68.8,54.3,65.2,59.9,53.6,99,77,47,30.18,30.07,2,0,4,0.00
2013-6-10,67.0,64.8,63.0,66.2,63.5,60.8,99,96,92,30.14,29.77,2,0,6,1.47
2013-6-11,78.7,71.2,65.4,68.6,66.0,62.3,99,85,66,29.77,29.64,3,1,5,0.02
2013-6-12,81.5,70.5,61.6,62.2,57.9,54.3,89,66,40,29.84,29.73,3,1,4,0.00
2013-6-13,65.6,60.9,56.0,62.3,59.2,54.9,98,94,88,29.84,29.44,4,1,7,1.06
2013-6-14,77.0,62.2,53.8,60.3,55.6,51.3,97,81,52,29.93,29.57,3,1,5,0.10
2013-6-15,80.6,66.2,51.9,61.7,56.6,51.1,99,75,40,30.04,29.93,2,0,3,0.00
2013-6-16,80.0,67.9,54.7,66.7,60.4,53.9,98,79,52,30.00,29.78,3,0,4,0.00
2013-6-17,86.3,73.7,60.6,71.0,63.6,55.8,99,74,37,29.92,29.81,2,0,5,0.00
2013-6-18,84.0,69.0,60.2,71.8,63.8,59.1,97,85,54,29.91,29.78,3,0,6,1.13
2013-6-19,78.4,66.2,54.7,59.7,54.8,48.8,98,71,37,30.16,29.90,3,1,5,0.00
2013-6-20,83.5,67.6,50.8,62.2,57.0,49.8,98,72,37,30.27,30.17,1,0,3,0.00
2013-6-21,85.4,70.3,55.5,63.5,58.8,53.6,95,70,45,30.30,30.20,2,0,3,0.00
2013-6-22,84.7,71.4,55.3,68.2,63.1,54.2,97,77,53,30.25,30.09,2,0,4,0.00
2013-6-23,91.0,77.1,62.9,72.5,68.7,61.7,98,77,52,30.18,30.02,2,0,3,0.00
2013-6-24,94.7,77.9,68.3,74.7,70.5,66.6,97,81,43,30.06,29.93,2,0,3,0.12
2013-6-25,91.1,75.6,64.6,78.0,70.1,64.0,99,84,55,30.00,29.80,2,0,4,0.11
2013-6-26,84.4,75.0,66.4,71.6,68.8,65.5,97,82,62,29.87,29.78,1,0,3,0.01
2013-6-27,90.5,75.5,64.9,73.7,69.2,64.0,98,83,52,29.82,29.51,3,0,6,0.57
2013-6-28,86.6,76.3,68.8,72.2,69.4,65.1,98,81,57,29.54,29.45,2,0,5,0.00
2013-6-29,86.0,74.3,64.2,68.6,66.1,63.0,97,78,54,29.68,29.47,1,0,3,0.00
2013-6-30,87.7,75.0,64.7,75.1,69.3,63.6,97,83,65,29.88,29.68,2,0,3,0.00
2013-7-1,76.8,73.3,69.6,74.7,71.5,68.7,99,94,88,30.00,29.85,1,0,4,1.25
2013-7-2,84.2,77.7,73.5,75.6,73.0,70.6,95,86,72,30.15,30.00,2,0,3,0.00
2013-7-3,83.3,76.7,72.4,77.6,72.9,69.8,97,88,75,30.22,30.14,1,0,4,0.14
2013-7-4,88.1,79.0,71.5,76.5,73.7,70.9,99,85,66,30.24,30.12,2,0,4,0.01
2013-7-5,92.6,80.4,69.7,76.5,73.1,68.8,98,80,55,30.19,30.06,1,0,3,0.00
2013-7-6,94.0,81.4,71.2,77.1,73.7,70.3,98,79,54,30.14,30.00,2,0,3,0.00
2013-7-7,95.0,81.2,71.2,78.3,73.5,68.4,98,80,54,30.05,29.91,3,0,8,0.03
2013-7-8,89.3,77.2,68.6,72.8,69.5,66.8,95,79,55,30.04,29.94,1,0,3,0.00
2013-7-9,86.4,75.7,66.1,75.7,70.2,64.9,97,84,65,30.06,29.97,2,0,3,0.02
2013-7-10,85.2,77.8,70.2,75.9,72.8,69.3,98,85,66,30.00,29.80,2,0,4,0.00
2013-7-11,87.0,77.5,68.1,74.4,69.6,64.1,94,78,55,29.91,29.79,2,0,5,0.00
2013-7-12,79.5,71.5,66.7,71.7,66.4,61.6,96,85,72,30.06,29.92,3,1,4,0.11
2013-7-13,80.7,72.5,66.6,75.4,70.2,65.6,98,93,82,30.27,30.06,2,1,5,0.10
2013-7-14,92.5,80.9,73.8,77.1,74.1,71.5,99,82,56,30.33,30.22,2,0,5,0.00
2013-7-15,97.6,82.5,70.1,77.8,73.7,69.2,98,78,49,30.24,30.12,2,0,3,0.00
2013-7-16,94.6,81.4,68.3,75.5,71.3,67.4,98,75,46,30.21,30.11,2,0,6,0.00
2013-7-17,96.9,81.9,68.3,75.6,71.3,67.1,98,74,41,30.19,30.03,2,0,7,0.00
2013-7-18,99.6,85.1,73.0,77.4,73.9,69.7,95,72,41,30.06,29.93,2,0,3,0.00
2013-7-19,97.5,84.8,72.4,79.0,75.2,71.2,97,75,50,29.95,29.76,2,0,3,0.00
2013-7-20,92.0,81.9,74.9,76.7,72.5,67.1,88,74,49,29.82,29.71,2,0,5,0.00
2013-7-21,89.2,79.5,71.0,72.6,69.9,64.7,97,74,47,29.93,29.81,2,0,4,0.00
2013-7-22,89.9,75.6,69.7,75.1,70.7,67.0,98,86,59,29.93,29.77,2,0,5,0.75
2013-7-23,87.7,75.8,71.1,76.7,72.5,69.8,99,90,64,29.76,29.55,2,0,3,0.67
2013-7-24,80.1,71.9,61.7,70.2,63.5,53.1,98,76,54,29.95,29.62,3,1,7,0.00
2013-7-25,72.0,63.8,56.6,61.7,56.0,51.4,88,76,66,30.05,29.94,3,1,6,0.00
2013-7-26,85.2,70.7,58.1,64.0,60.3,56.9,97,73,44,30.05,29.98,1,0,4,0.00
2013-7-27,86.7,72.0,57.5,68.7,63.4,56.4,98,76,53,30.04,29.91,2,0,3,0.00
2013-7-28,78.9,70.2,66.1,72.6,67.6,62.6,98,92,78,29.97,29.88,3,0,6,1.23
2013-7-29,84.3,70.5,60.2,67.5,62.3,55.9,99,79,39,30.11,29.94,2,0,4,0.02
2013-7-30,81.9,67.5,54.9,63.5,59.1,54.1,98,77,47,30.19,30.10,2,0,3,0.00
2013-7-31,85.0,69.7,56.1,65.3,61.2,55.3,98,77,47,30.18,30.01,1,0,3,0.00
2013-8-1,69.3,66.9,63.4,67.8,65.6,62.2,97,96,92,30.02,29.82,2,0,6,0.37
2013-8-2,84.9,72.4,63.1,70.0,64.6,61.4,99,79,49,29.91,29.81,2,0,3,0.02
2013-8-3,76.7,68.0,62.9,69.4,64.7,60.4,98,90,75,29.92,29.84,2,0,3,0.14
2013-8-4,79.0,68.3,57.1,63.5,58.6,53.4,99,74,46,30.00,29.88,2,0,4,0.01
2013-8-5,78.5,65.2,51.7,62.6,54.5,49.3,98,73,36,30.09,29.99,3,0,5,0.00
2013-8-6,83.4,67.8,53.0,64.1,59.0,52.2,98,76,42,30.11,30.04,2,0,4,0.00
2013-8-7,76.0,70.4,65.4,69.4,66.4,61.9,95,87,75,30.11,30.02,2,0,5,0.06
2013-8-8,84.1,73.8,68.8,77.0,71.9,68.2,98,94,74,30.04,29.96,1,0,2,0.48
2013-8-9,86.9,75.7,71.1,77.6,73.6,70.5,99,94,70,29.98,29.78,2,0,3,0.80
2013-8-10,83.5,73.3,64.7,70.4,66.7,63.5,99,82,54,30.05,29.88,2,0,3,0.00
2013-8-11,80.1,66.7,57.1,63.4,59.3,55.3,98,80,50,30.14,30.04,1,0,2,0.00
2013-8-12,84.3,76.5,66.3,68.3,65.4,61.8,95,70,48,30.02,29.91,2,0,4,0.14
2013-8-13,80.7,70.4,65.2,71.7,67.2,64.2,99,90,73,29.91,29.67,2,0,2,1.33
2013-8-14,73.8,63.6,52.8,64.6,54.6,50.9,96,75,49,30.07,29.78,3,1,5,0.00
2013-8-15,77.9,62.3,48.8,61.3,53.8,48.0,99,78,38,30.16,30.07,2,0,3,0.00
2013-8-16,80.2,61.1,51.3,61.2,55.1,50.5,99,84,42,30.18,30.14,0,0,0,0.00
2013-8-21,85.1,76.5,68.2,70.2,67.6,65.8,95,76,54,30.09,30.05,0,0,1,0.00
2013-8-22,80.7,71.7,66.7,74.8,69.2,65.6,98,92,78,30.06,29.87,1,0,4,0.05
2013-8-23,80.6,68.9,59.5,67.1,62.8,56.9,99,83,46,30.12,29.90,1,0,3,0.00
2013-8-24,80.1,65.5,54.2,59.2,55.8,52.2,99,75,43,30.35,30.12,2,0,5,0.00
2013-8-25,82.8,64.9,51.0,65.0,56.2,50.2,99,78,41,30.42,30.23,1,0,4,0.00
2013-8-26,80.7,69.6,60.2,71.2,64.4,58.2,97,84,69,30.24,29.92,1,0,3,0.05
2013-8-27,87.8,76.2,68.6,73.3,69.3,67.2,98,81,54,29.91,29.84,2,0,5,0.01
2013-8-28,74.5,70.4,65.9,73.0,69.4,65.3,99,97,90,29.89,29.83,1,0,2,0.67
2013-8-29,81.3,73.0,68.0,72.4,69.5,67.4,99,89,70,30.01,29.88,2,0,4,0.01
2013-8-30,83.1,74.3,68.0,73.6,69.8,65.7,94,86,69,30.01,29.83,1,0,3,0.00
2013-8-31,88.1,77.2,69.5,76.3,72.6,68.5,98,86,67,29.85,29.76,1,0,3,0.00
2013-9-1,85.2,77.4,71.5,76.9,73.4,70.3,98,88,69,29.82,29.76,2,0,3,0.37
2013-9-2,80.9,72.7,68.8,75.4,71.1,68.2,99,95,79,29.79,29.69,1,0,2,0.76
2013-9-3,80.8,70.0,61.4,69.2,63.3,57.4,99,82,49,29.91,29.72,2,0,2,0.01
2013-9-4,81.8,68.3,58.2,63.1,60.1,56.4,98,78,46,30.02,29.90,2,0,4,0.00
2013-9-5,77.3,64.7,53.3,63.7,55.4,45.0,99,76,38,30.17,29.94,3,0,6,0.00
2013-9-6,70.8,57.3,44.8,51.8,46.4,39.0,98,72,34,30.29,30.15,2,0,5,0.00
2013-9-7,78.6,61.1,44.9,60.8,52.3,44.0,99,77,37,30.16,29.91,1,0,2,0.00
2013-9-8,80.3,67.1,54.8,67.3,57.5,47.0,97,74,39,30.10,29.83,3,1,11,0.00
2013-9-9,75.3,61.5,44.9,61.7,53.5,43.8,97,77,50,30.25,30.10,2,0,3,0.00
2013-9-10,85.9,75.1,66.7,76.4,70.0,61.7,95,85,70,30.15,30.02,2,0,4,0.00
2013-9-11,94.1,80.0,68.4,80.1,73.8,67.6,99,83,61,30.12,29.96,2,0,3,0.00
2013-9-12,83.1,72.7,67.5,76.6,70.7,66.4,99,94,76,29.98,29.68,1,0,3,0.88
2013-9-13,74.7,65.7,56.2,67.3,59.7,48.9,99,82,58,29.89,29.65,3,0,7,0.10
2013-9-14,61.9,55.5,44.5,50.2,47.6,43.2,95,76,59,30.16,29.89,4,1,5,0.00
2013-9-15,70.8,55.7,43.1,56.4,49.2,42.2,99,82,47,30.24,30.08,1,0,2,0.00
2013-9-16,71.8,60.0,53.1,60.3,54.2,46.9,98,83,54,30.27,30.05,2,0,5,0.06
2013-9-17,64.5,52.8,41.5,46.9,43.3,39.6,96,73,41,30.45,30.28,3,1,4,0.00
2013-9-18,71.5,53.6,41.2,52.7,45.8,40.4,99,79,39,30.37,30.19,1,0,3,0.00
2013-9-19,76.1,57.0,43.2,57.5,49.6,42.2,99,80,44,30.22,30.08,1,0,3,0.00
2013-9-20,80.1,61.5,47.1,63.2,54.8,46.3,99,82,47,30.10,29.97,2,0,3,0.00
2013-9-21,78.1,64.2,51.3,64.1,57.8,50.5,99,82,52,30.00,29.66,2,0,5,0.61
2013-9-22,67.4,60.2,54.1,59.9,51.5,42.8,98,75,47,29.95,29.67,3,1,5,0.12
2013-9-23,65.2,54.8,45.4,46.8,44.2,41.7,92,68,48,30.08,29.95,4,1,8,0.00
2013-9-24,73.1,54.5,38.5,51.7,45.1,37.5,98,75,38,30.09,29.91,2,0,4,0.00
2013-9-25,71.9,55.4,40.4,54.0,47.7,39.4,98,79,42,30.00,29.88,2,0,5,0.00
2013-9-26,73.1,56.7,44.3,59.8,51.9,43.5,99,86,56,30.12,29.96,2,0,5,0.00
2013-9-27,70.7,57.9,45.5,55.9,51.5,44.7,99,82,51,30.27,30.12,1,0,1,0.00
2013-9-28,74.5,60.8,51.0,55.8,52.7,49.6,97,78,46,30.34,30.24,2,0,4,0.00
2013-9-29,71.4,57.1,46.9,57.6,52.0,46.1,99,85,58,30.25,30.07,2,0,3,0.00
2013-9-30,73.8,57.6,47.4,58.1,51.4,46.3,99,83,46,30.10,29.97,2,0,4,0.00
2013-10-1,79.8,61.3,47.9,63.5,54.8,47.1,99,82,48,30.05,29.91,2,0,3,0.00
2013-10-2,83.6,64.8,49.1,64.6,57.7,48.3,99,81,50,30.03,29.93,2,0,4,0.01
2013-10-3,79.0,64.2,51.8,64.6,58.1,51.0,99,83,43,30.14,30.03,1,0,2,0.00
2013-10-4,85.8,69.2,56.1,70.0,62.9,55.3,98,82,54,30.08,29.97,1,0,3,0.00
2013-10-5,83.2,70.5,61.7,69.0,65.3,60.8,98,85,60,30.09,29.98,2,0,4,0.05
2013-10-6,69.8,67.5,65.1,67.0,65.3,63.3,97,93,88,30.07,29.97,2,0,5,0.02
2013-10-7,76.3,65.1,51.8,70.9,63.2,49.8,98,94,83,30.00,29.70,4,1,10,0.46
2013-10-8,66.8,54.2,43.7,51.9,47.3,43.2,99,80,46,30.34,30.00,3,0,6,0.01
2013-10-9,61.2,51.0,42.3,50.1,45.7,41.5,98,84,54,30.42,30.31,3,1,7,0.00
2013-10-10,58.1,53.6,49.4,52.8,48.5,45.3,91,83,74,30.31,30.08,3,2,8,0.05
2013-10-11,65.0,60.5,56.1,60.2,54.4,47.8,92,80,72,30.10,30.02,3,2,7,0.02
2013-10-12,73.6,63.3,55.2,56.7,49.7,34.5,87,64,26,30.26,30.08,5,2,7,0.00
2013-10-13,65.9,58.8,48.5,54.4,51.4,47.1,95,77,61,30.38,30.26,3,1,5,0.00
2013-10-14,67.9,53.9,44.2,51.8,47.5,43.1,99,82,45,30.38,30.24,2,0,4,0.00
2013-10-15,72.6,55.9,43.8,56.9,48.5,42.3,98,78,48,30.27,30.11,2,0,8,0.00
2013-10-16,64.8,56.0,46.6,58.1,52.2,43.8,94,87,76,30.13,29.92,1,0,2,0.00
2013-10-17,75.7,65.5,58.5,63.4,60.3,56.8,96,84,57,29.92,29.66,2,0,4,0.01
2013-10-18,65.9,57.4,43.2,63.1,47.1,40.6,92,70,48,30.00,29.68,3,1,7,0.00
2013-10-19,64.2,50.2,37.2,52.6,43.9,36.2,98,82,48,30.01,29.77,2,0,4,0.08
2013-10-20,62.2,49.9,38.8,51.0,41.2,35.0,97,76,37,30.09,29.79,3,1,6,0.00
2013-10-21,67.3,48.6,33.8,45.2,39.0,32.8,98,74,38,30.18,29.98,2,0,5,0.01
2013-10-22,60.8,49.0,38.5,51.2,42.4,35.2,97,79,47,29.98,29.77,2,0,4,0.00
2013-10-23,54.9,41.5,32.0,42.3,35.6,30.7,97,81,44,29.85,29.66,2,0,4,0.00
2013-10-24,52.1,40.6,31.7,37.6,32.3,27.5,98,75,42,30.04,29.81,3,1,5,0.01
2013-10-25,52.9,41.7,31.8,36.7,32.8,29.5,93,73,45,30.25,30.04,3,1,6,0.00
2013-10-26,54.4,41.9,29.6,35.7,31.7,28.2,96,71,41,30.26,29.91,4,1,6,0.00
2013-10-27,56.9,46.1,33.8,36.8,33.7,30.3,88,64,43,30.17,29.89,3,1,6,0.00
2013-10-28,61.3,42.4,27.7,39.6,33.1,26.2,96,74,39,30.33,30.16,2,0,4,0.00
2013-10-29,55.8,43.7,33.5,37.3,34.2,31.0,91,72,43,30.44,30.33,3,0,5,0.00
2013-10-30,56.4,45.3,33.2,50.1,40.4,30.6,94,83,72,30.37,30.18,1,0,1,0.00
2013-10-31,63.3,54.8,45.6,59.8,52.9,44.2,98,93,87,30.23,29.77,3,0,5,0.07
2013-11-1,68.8,61.5,45.8,64.2,56.5,44.3,97,85,58,29.77,29.51,5,1,7,0.36
2013-11-2,64.9,51.2,41.0,50.2,44.8,39.0,98,81,53,29.81,29.65,2,0,4,0.00
2013-11-3,48.7,42.4,30.5,43.2,31.5,21.3,95,67,45,30.49,29.81,7,2,8,0.00
2013-11-4,44.4,33.1,23.5,27.8,20.4,-99.9,91,65,35,30.67,30.49,5,-15,7,0.00
2013-11-5,55.0,41.6,29.4,43.6,31.5,-99.9,87,72,57,30.68,30.48,3,-20,4,0.00
2013-11-6,61.9,53.4,45.6,50.1,46.5,42.2,89,78,63,30.49,30.06,2,0,4,0.00
2013-11-7,58.3,49.8,37.9,56.3,42.7,-99.9,96,84,67,30.06,29.78,3,-30,5,0.11
2013-11-8,47.9,40.1,31.4,37.1,31.1,27.8,91,71,46,30.25,29.97,3,1,5,0.00
2013-11-9,49.7,39.4,27.7,34.7,29.8,25.4,94,70,45,30.32,29.99,2,0,4,0.00
2013-11-10,56.1,44.3,31.4,38.2,33.0,29.3,94,67,47,30.10,29.86,5,2,7,0.00
2013-11-11,52.2,45.4,33.2,37.6,31.5,26.3,80,58,49,30.25,29.97,4,1,7,0.00
2013-11-12,48.4,35.4,25.7,37.3,24.4,17.8,89,65,48,30.34,29.95,6,2,8,0.01
2013-11-13,38.1,30.1,24.2,27.0,18.2,13.8,89,63,39,30.43,30.30,4,1,7,0.00
2013-11-14,51.1,35.9,24.6,24.9,21.7,19.3,87,60,29,30.30,30.19,4,1,7,0.00
2013-11-15,56.1,37.6,25.1,31.5,25.1,20.0,90,65,27,30.28,30.16,2,0,4,0.00
2013-11-16,59.9,45.7,34.4,45.4,39.5,28.6,96,80,54,30.35,30.26,1,0,3,0.04
2013-11-17,64.2,55.9,47.0,58.1,52.8,43.6,97,90,74,30.26,29.74,3,1,5,0.00
2013-11-18,62.7,56.4,48.0,60.2,41.8,27.8,97,62,35,29.84,29.60,6,2,9,0.29
2013-11-19,47.9,41.4,33.3,30.3,25.6,22.3,66,53,47,30.39,29.83,5,2,11,0.00
2013-11-20,43.4,33.8,24.2,22.9,18.9,11.3,79,56,27,30.65,30.39,6,2,10,0.00
2013-11-21,50.1,36.4,20.1,39.5,27.9,16.8,89,72,56,30.65,30.40,2,0,5,0.00
2013-11-22,54.0,48.2,42.9,48.6,44.0,35.2,96,86,72,30.40,29.95,3,1,5,0.02
2013-11-23,50.6,39.4,27.1,47.2,26.2,9.5,88,60,40,30.13,29.94,6,2,10,0.00
2013-11-24,27.4,24.1,21.2,9.9,5.4,2.6,58,44,36,30.43,30.09,6,3,11,0.00
2013-11-25,33.5,27.2,18.9,17.4,13.8,8.6,76,57,47,30.52,30.33,4,2,6,0.00
2013-11-26,38.4,33.2,31.1,37.6,25.2,15.5,97,74,51,30.34,29.73,3,1,4,0.77
2013-11-27,43.1,38.8,32.2,42.6,35.2,19.8,98,88,58,29.82,29.42,5,2,11,1.19
2013-11-28,34.3,30.2,26.5,25.2,16.7,11.6,82,58,41,30.48,29.82,6,2,10,0.00
2013-11-29,36.3,29.9,21.0,26.5,21.5,16.1,91,72,52,30.76,30.48,3,0,5,0.00
2013-11-30,35.0,26.7,15.8,28.8,20.1,13.1,93,77,53,30.79,30.40,3,0,6,0.00
2013-12-1,45.0,34.2,24.0,35.6,28.4,22.0,95,81,56,30.40,30.03,2,0,4,0.00
2013-12-2,45.7,36.3,28.5,39.1,30.9,26.2,93,81,59,30.04,29.90,1,0,2,0.00
2013-12-3,51.9,37.0,28.0,39.2,31.9,26.1,95,83,54,30.03,29.89,2,0,4,0.00
2013-12-4,50.8,40.6,28.5,44.0,35.9,26.7,96,84,68,30.15,30.03,2,0,5,0.00
2013-12-5,51.4,48.2,44.5,50.9,47.1,41.7,98,96,83,30.12,29.93,2,0,3,0.02
2013-12-6,53.0,43.6,35.8,52.1,41.9,34.7,99,93,84,30.19,29.88,4,1,9,0.90
2013-12-7,36.8,33.4,27.0,35.4,28.3,19.8,96,82,65,30.56,30.11,4,1,7,0.01
2013-12-8,30.3,26.7,21.7,27.3,21.5,18.1,95,81,66,30.62,30.38,2,1,4,0.00
2013-12-9,34.6,32.6,28.5,34.1,31.8,27.3,98,97,95,30.38,30.01,2,1,5,0.28
2013-12-10,32.5,29.7,21.6,31.8,28.4,19.1,98,95,83,30.16,29.93,2,0,4,0.05
2013-12-11,31.7,25.5,20.7,25.4,18.8,16.3,92,76,57,30.37,30.16,4,1,6,0.00
2013-12-12,27.8,23.1,17.5,20.7,12.1,7.1,82,63,45,30.42,30.19,3,1,5,0.00
2013-12-13,34.9,25.1,11.8,23.8,16.1,7.2,90,69,51,30.34,30.16,4,1,7,0.00
2013-12-14,27.9,22.9,17.7,23.5,19.5,15.8,93,87,76,30.49,29.84,6,3,9,0.00
2013-12-15,37.7,29.7,18.1,32.5,25.0,16.4,96,83,66,29.86,29.61,6,2,10,0.12
2013-12-16,31.0,23.5,12.0,23.6,12.5,7.5,88,63,45,30.24,29.85,4,2,6,0.00
2013-12-17,21.5,17.3,10.0,18.8,14.3,7.4,93,88,79,30.24,29.98,2,0,3,0.00
2013-12-18,35.3,21.6,7.3,25.0,16.6,4.7,96,82,61,30.21,29.98,4,1,5,0.08
2013-12-19,37.7,24.9,12.6,29.3,20.4,10.2,93,83,64,30.20,30.06,3,0,5,0.06
2013-12-20,45.9,34.6,27.2,33.9,29.6,24.9,94,83,60,30.13,29.99,2,0,3,0.21
2013-12-21,51.1,39.4,32.2,43.3,35.4,30.4,95,86,72,30.03,29.91,2,0,3,0.01
2013-12-22,62.8,52.4,37.0,58.5,50.7,34.4,99,94,82,29.96,29.78,4,1,6,0.05
2013-12-23,55.1,47.5,38.0,54.8,45.7,29.5,99,94,71,30.19,29.92,5,1,10,0.63
2013-12-24,38.0,32.5,23.2,30.0,23.1,13.4,90,68,55,30.40,30.13,4,1,8,0.00
2013-12-25,26.1,22.5,15.7,19.6,12.6,8.1,82,65,54,30.57,30.40,3,1,5,0.00
2013-12-26,32.1,25.8,20.1,28.5,22.0,16.8,95,86,69,30.43,30.20,3,0,4,0.01
2013-12-27,38.3,27.4,18.1,31.5,22.3,16.3,96,82,58,30.40,30.29,3,0,6,0.00
2013-12-28,49.8,32.6,19.9,33.4,25.9,18.2,96,79,47,30.30,30.09,4,1,7,0.00
2013-12-29,40.1,35.1,28.9,39.3,33.4,26.5,97,93,88,30.09,29.51,4,1,5,0.86
2013-12-30,42.7,33.4,21.5,37.0,26.8,12.9,97,78,59,30.20,29.74,4,1,8,0.00
2013-12-31,31.4,24.1,17.2,25.9,15.4,10.7,91,70,54,30.31,30.07,6,2,7,0.00
2014-1-1,33.5,26.8,20.0,25.0,19.1,11.7,84,73,62,30.43,30.24,3,1,5,0.00
2014-1-2,28.0,21.3,13.6,22.3,17.3,11.5,91,84,78,30.24,29.74,6,4,10,0.00